NEODyS-2

Near Earth Objects - Dynamic Site
NEODyS ∴ Observatories ∴ Site 691 ∴ Obs & residuals
Contact »
691  ▹ 
OBSERVATIONS AND RESIDUALS

691-Steward Observatory, Kitt Peak-Spacewatch

Detections | Residuals | Detections & Residuals

[1-200] [201-400] [401-600] [601-800] [801-1000] [1001-1200] [1201-1400] [1401-1600] [1601-1800] [1801-2000] [2001-2200] [2201-2400] [2401-2600] [2601-2800] [2801-3000] [3001-3200] [3201-3400] [3401-3600] [3601-3800] [3801-4000] [4001-4200] [4201-4400] [4401-4600] [4601-4800] [4801-5000] [5001-5200] [5201-5400] [5401-5600] [5601-5800] [5801-6000] [6001-6200] [6201-6400] [6401-6600] [6601-6800] [6801-7000] [7001-7200] [7201-7400] [7401-7600] [7601-7800] [7801-8000] [8001-8200] [8201-8400] [8401-8600] [8601-8800] [8801-9000] [9001-9200] [9201-9400] [9401-9600] [9601-9800] [9801-10000] [10001-10200] [10201-10400] [10401-10600] [10601-10800] [10801-11000] [11001-11200] [11201-11400] [11401-11600] [11601-11800] [11801-12000] [12001-12200] [12201-12400] [12401-12600] [12601-12800] [12801-13000] [13001-13200] [13201-13400] [13401-13600] [13601-13800] [13801-14000] [14001-14200] [14201-14400] [14401-14600] [14601-14800] [14801-15000] [15001-15200] [15201-15400] [15401-15600] [15601-15800] [15801-16000] [16001-16200] [16201-16400] [16401-16600] [16601-16800] [16801-17000] [17001-17200] [17201-17400] [17401-17600] [17601-17800] [17801-18000] [18001-18200] [18201-18400] [18401-18600] [18601-18800] [18801-19000] [19001-19200] [19201-19400] [19401-19600] [19601-19800] [19801-20000] [20001-20200] [20201-20400] [20401-20600] [20601-20800] [20801-21000] [21001-21200] [21201-21400] [21401-21600] [21601-21800] [21801-22000] [22001-22200] [22201-22400] [22401-22600] [22601-22800] [22801-23000] [23001-23200] [23201-23400] [23401-23600] [23601-23800] [23801-24000] [24001-24200] [24201-24400] [24401-24600] [24601-24800] [24801-25000] [25001-25200] [25201-25400] [25401-25600] [25601-25800] [25801-26000] [26001-26200] [26201-26400] [26401-26600] [26601-26800] [26801-27000] [27001-27200] [27201-27400] [27401-27600] [27601-27800] [27801-28000] [28001-28200] [28201-28400] [28401-28600] [28601-28800] [28801-29000] [29001-29200] [29201-29400] [29401-29600] [29601-29800] [29801-30000] [30001-30200] [30201-30400] [30401-30600] [30601-30800] [30801-31000] [31001-31200] [31201-31400] [31401-31600] [31601-31800] [31801-32000] [32001-32200] [32201-32400] [32401-32600] [32601-32800] [32801-33000] [33001-33200] [33201-33400] [33401-33600] [33601-33800] [33801-34000] [34001-34200] [34201-34400] [34401-34600] [34601-34800] [34801-35000] [35001-35200] [35201-35400] [35401-35600] [35601-35800] [35801-36000] [36001-36200] [36201-36400] [36401-36600] [36601-36800] [36801-37000] [37001-37200] [37201-37400] [37401-37600] [37601-37800] [37801-38000] [38001-38200] [38201-38400] [38401-38600] [38601-38800] [38801-39000] [39001-39200] [39201-39400] [39401-39600] [39601-39800] [39801-40000] [40001-40200] [40201-40400] [40401-40600] [40601-40800] [40801-41000] [41001-41200] [41201-41400] [41401-41600] [41601-41800] [41801-42000] [42001-42200] [42201-42400] [42401-42600] [42601-42800] [42801-43000] [43001-43200] [43201-43400] [43401-43600] [43601-43800] [43801-44000] [44001-44200] [44201-44400] [44401-44600] [44601-44800] [44801-45000] [45001-45200] [45201-45400] [45401-45600] [45601-45800] [45801-46000] [46001-46200] [46201-46400] [46401-46600] [46601-46800] [46801-47000] [47001-47200] [47201-47400] [47401-47600] [47601-47800] [47801-48000] [48001-48200] [48201-48400] [48401-48600] [48601-48800] [48801-49000] [49001-49200] [49201-49400] [49401-49600] [49601-49800] [49801-50000] [50001-50200] [50201-50388]

Designation T Tech N Date Right Ascension Declination Apparent Magnitude Star Catalog Site code χ Used A Used M
yr-mo-day precision hr:min:sec precision rms F bias residual deg min sec precision rms F bias residual mag/col rms residual
1998HL49 O C 2000-03-27.14717 1.000E-05 03:50:17.690 1.500E-01 0.735 F 0.119 0.457 +08° 37' 47.40" 1.000E-01 0.735 F -0.204 0.109 19.7 V 0.70 0.64 a 691 0.64 Yes Yes
1998HL49 O C t 2000-03-27.14717 1.000E-05 03:50:17.750 1.500E-01 0.735 F 0.105 1.361 +08° 37' 49.40" 1.000E-01 0.735 F -0.228 2.133 b 691 3.44 No No
1998HL49 O C t 2000-03-27.16566 1.000E-05 03:50:25.620 1.500E-01 0.735 F 0.105 1.567 +08° 38' 09.60" 1.000E-01 0.735 F -0.228 3.365 b 691 5.05 No No
1998HL49 O C 2000-03-27.16570 1.000E-05 03:50:25.620 1.500E-01 0.735 F 0.119 1.301 +08° 38' 06.90" 1.000E-01 0.735 F -0.204 0.600 20.5 V 0.70 1.44 a 691 1.95 Yes Yes
2000FJ10 O C H 2000-03-27.30114 1.000E-05 13:02:22.920 1.500E-01 0.600 F -0.392 -0.128 -06° 39' 33.80" 1.000E-01 0.600 F 0.101 0.506 21.7 V 0.70 1.25 b 691 0.87 Yes Yes
2000FJ10 O C H 2000-03-27.30849 1.000E-05 13:02:22.160 1.500E-01 0.600 F -0.392 0.511 -06° 39' 23.60" 1.000E-01 0.600 F 0.101 1.784 20.9 V 0.70 0.45 b 691 3.10 Yes Yes
2000FJ10 O C H 2000-03-27.31640 1.000E-05 13:02:21.270 1.500E-01 0.600 F -0.392 0.133 -06° 39' 14.40" 1.000E-01 0.600 F 0.101 1.378 21.4 V 0.70 0.95 b 691 2.31 Yes Yes
2000BH19 O C 2000-03-29.14066 1.000E-05 10:01:27.180 1.500E-01 0.600 F -0.090 -0.098 +11° 13' 17.70" 1.000E-01 0.600 F 0.043 -0.554 19.4 V 0.70 0.55 b 691 0.95 Yes Yes
2000BH19 O C 2000-03-29.17056 1.000E-05 10:01:31.480 1.500E-01 0.600 F -0.090 0.104 +11° 12' 47.20" 1.000E-01 0.600 F 0.043 -0.454 19.3 V 0.70 0.45 b 691 0.78 Yes Yes
2000BH19 O C 2000-03-29.20256 1.000E-05 10:01:36.050 1.500E-01 0.600 F -0.090 0.081 +11° 12' 14.60" 1.000E-01 0.600 F 0.043 -0.155 19.2 V 0.70 0.35 b 691 0.30 Yes Yes
2000FJ10 O C 2000-03-29.25185 1.000E-05 12:59:02.600 1.500E-01 0.600 F -0.239 0.213 -06° 00' 00.50" 1.000E-01 0.600 F 0.068 0.289 21.2 V 0.70 0.83 b 691 0.60 Yes Yes
2000FJ10 O C 2000-03-29.27298 1.000E-05 12:59:00.290 1.500E-01 0.600 F -0.239 0.125 -05° 59' 35.10" 1.000E-01 0.600 F 0.068 0.096 20.7 V 0.70 0.33 b 691 0.26 Yes Yes
2000FJ10 O C 2000-03-29.29391 1.000E-05 12:58:58.020 1.500E-01 0.600 F -0.239 0.408 -05° 59' 09.70" 1.000E-01 0.600 F 0.068 0.119 21.2 V 0.70 0.83 b 691 0.71 Yes Yes
2000EH26 O C 2000-03-30.20626 1.000E-05 09:12:52.200 1.500E-01 0.600 F -0.324 0.261 +14° 32' 56.70" 1.000E-01 0.600 F -0.018 -0.207 19.5 V 0.70 0.10 b 691 0.57 Yes Yes
2000EH26 O C 2000-03-30.21203 1.000E-05 09:12:51.270 1.500E-01 0.600 F -0.324 0.156 +14° 33' 00.40" 1.000E-01 0.600 F -0.018 -0.302 19.6 V 0.70 0.20 b 691 0.58 Yes Yes
2000EH26 O C 2000-03-30.21770 1.000E-05 09:12:50.360 1.500E-01 0.600 F -0.324 0.096 +14° 33' 05.80" 1.000E-01 0.600 F -0.018 1.384 18.9 V 0.70 -0.50 b 691 2.38 Yes Yes
2000FM10 O C 2000-03-30.28764 1.000E-05 12:57:58.220 1.500E-01 0.735 F -0.147 0.862 -04° 33' 33.40" 1.000E-01 0.735 F -0.123 -0.052 21.2 V 0.70 0.71 b 691 1.18 Yes Yes
2000FM10 O C 2000-03-30.30839 1.000E-05 12:57:56.080 1.500E-01 0.735 F -0.147 0.694 -04° 33' 22.90" 1.000E-01 0.735 F -0.123 0.402 21.2 V 0.70 0.71 b 691 1.09 Yes Yes
2000FM10 O C 2000-03-30.32941 1.000E-05 12:57:53.910 1.500E-01 0.735 F -0.147 0.508 -04° 33' 13.10" 1.000E-01 0.735 F -0.123 0.016 21.1 V 0.70 0.61 b 691 0.69 Yes Yes
2000FM10 O C 2000-03-30.40057 1.000E-05 12:57:46.590 1.500E-01 0.735 F -0.147 0.231 -04° 32' 38.80" 1.000E-01 0.735 F -0.123 -0.235 20.9 V 0.70 0.41 b 691 0.45 Yes Yes
2000FM10 O C 2000-03-30.40482 1.000E-05 12:57:46.140 1.500E-01 0.735 F -0.147 0.015 -04° 32' 36.70" 1.000E-01 0.735 F -0.123 -0.202 21.1 V 0.70 0.61 b 691 0.28 Yes Yes
2000FM10 O C 2000-03-30.40879 1.000E-05 12:57:45.760 1.500E-01 0.735 F -0.147 0.414 -04° 32' 34.70" 1.000E-01 0.735 F -0.123 -0.133 21.5 V 0.70 1.01 b 691 0.59 Yes Yes
2000FP10 O C t 2000-03-31.22656 1.000E-05 09:49:24.050 1.500E-01 0.600 F 0.036 2.103 +12° 06' 02.80" 1.000E-01 0.600 F -0.306 1.908 19.2 V 0.70 0.65 b 691 4.70 No Yes
2000FP10 O C t 2000-03-31.23228 1.000E-05 09:49:23.030 1.500E-01 0.600 F 0.036 1.018 +12° 05' 04.50" 1.000E-01 0.600 F -0.306 1.988 19.2 V 0.70 0.65 b 691 3.68 No Yes
2000FP10 O C t 2000-03-31.23796 1.000E-05 09:49:22.070 1.500E-01 0.600 F 0.036 0.693 +12° 04' 06.80" 1.000E-01 0.600 F -0.306 2.264 19.2 V 0.70 0.65 b 691 3.89 No Yes
2000FP10 O C t 2000-03-31.27389 1.000E-05 09:49:16.200 1.500E-01 0.600 F 0.036 0.958 +11° 58' 00.20" 1.000E-01 0.600 F -0.306 2.493 19.2 V 0.70 0.64 b 691 4.40 No Yes
2000FP10 O C t 2000-04-01.12284 1.000E-05 09:47:22.130 1.500E-01 0.735 F -0.125 0.286 +09° 35' 41.50" 1.000E-01 0.735 F -0.324 0.062 19.2 V 0.70 0.60 b 691 0.40 Yes Yes
2000FP10 O C t 2000-04-01.12682 1.000E-05 09:47:21.550 1.500E-01 0.735 F -0.125 0.701 +09° 35' 00.70" 1.000E-01 0.735 F -0.324 -1.318 19.2 V 0.70 0.60 b 691 2.08 Yes Yes
2000FP10 O C t 2000-04-01.13087 1.000E-05 09:47:20.960 1.500E-01 0.735 F -0.125 1.136 +09° 34' 22.70" 1.000E-01 0.735 F -0.324 0.795 19.2 V 0.70 0.60 b 691 1.90 Yes Yes
2000FP10 O C t 2000-04-01.17348 1.000E-05 09:47:14.350 1.500E-01 0.735 F -0.125 0.151 +09° 27' 20.30" 1.000E-01 0.735 F -0.324 0.444 19.2 V 0.70 0.60 b 691 0.64 Yes Yes
2000FP10 O C t 2000-04-01.17739 1.000E-05 09:47:13.700 1.500E-01 0.735 F -0.125 -0.565 +09° 26' 42.30" 1.000E-01 0.735 F -0.324 1.174 19.2 V 0.70 0.60 b 691 1.81 Yes Yes
2000FP10 O C t 2000-04-01.18126 1.000E-05 09:47:13.160 1.500E-01 0.735 F -0.125 0.255 +09° 26' 04.40" 1.000E-01 0.735 F -0.324 1.608 19.2 V 0.70 0.60 b 691 2.24 Yes Yes
2000FM10 O C H 2000-04-01.21351 1.000E-05 12:54:43.660 1.500E-01 0.735 F 0.226 0.466 -04° 17' 51.90" 1.000E-01 0.735 F -0.068 1.017 21.7 V 0.70 1.30 b 691 1.52 Yes Yes
2000FJ10 O C H 2000-04-01.22035 1.000E-05 12:53:58.360 1.500E-01 0.600 F 0.182 0.365 -05° 00' 11.80" 1.000E-01 0.600 F -0.176 0.581 20.8 V 0.70 0.58 b 691 1.15 Yes Yes
2000FM10 O C H 2000-04-01.22432 1.000E-05 12:54:42.580 1.500E-01 0.735 F 0.226 1.054 -04° 17' 46.70" 1.000E-01 0.735 F -0.068 0.920 21.3 V 0.70 0.91 b 691 1.90 Yes Yes
2000FJ10 O C H 2000-04-01.22835 1.000E-05 12:53:57.490 1.500E-01 0.600 F 0.182 0.194 -05° 00' 02.20" 1.000E-01 0.600 F -0.176 0.629 b 691 1.10 Yes No
2000FM10 O C H 2000-04-01.23248 1.000E-05 12:54:41.580 1.500E-01 0.735 F 0.226 -1.256 -04° 17' 42.30" 1.000E-01 0.735 F -0.068 1.320 21.2 V 0.70 0.81 b 691 2.48 Yes Yes
2000FJ10 O C H 2000-04-01.23659 1.000E-05 12:53:56.530 1.500E-01 0.600 F 0.182 -0.916 -04° 59' 50.80" 1.000E-01 0.600 F -0.176 2.188 20.8 V 0.70 0.58 b 691 3.94 No Yes
2000GB2 O C 2000-04-01.32541 1.000E-05 12:48:12.860 1.500E-01 0.600 F 0.220 0.095 -03° 57' 36.40" 1.000E-01 0.600 F 0.029 0.503 21.0 V 0.70 0.47 b 691 0.91 Yes Yes
2000FM10 O C 2000-04-01.32978 1.000E-05 12:54:31.530 1.500E-01 0.735 F 0.226 -0.339 -04° 16' 55.60" 1.000E-01 0.735 F -0.068 0.233 21.2 V 0.70 0.81 b 691 0.56 Yes Yes
2000GB2 O C 2000-04-01.34618 1.000E-05 12:48:11.220 1.500E-01 0.600 F 0.220 0.011 -03° 57' 21.20" 1.000E-01 0.600 F 0.029 -0.144 b 691 0.26 Yes No
2000FM10 O C 2000-04-01.35054 1.000E-05 12:54:29.380 1.500E-01 0.735 F 0.226 -0.193 -04° 16' 45.90" 1.000E-01 0.735 F -0.068 -0.285 b 691 0.47 Yes No
2000GB2 O C 2000-04-01.36702 1.000E-05 12:48:09.560 1.500E-01 0.600 F 0.220 -0.322 -03° 57' 05.20" 1.000E-01 0.600 F 0.029 -0.048 21.0 V 0.70 0.47 b 691 0.57 Yes Yes
2000FM10 O C 2000-04-01.37138 1.000E-05 12:54:27.230 1.500E-01 0.735 F 0.226 0.065 -04° 16' 35.20" 1.000E-01 0.735 F -0.068 0.149 21.7 V 0.70 1.31 b 691 0.22 Yes Yes
2000FP10 O C t 2000-04-02.12141 1.000E-05 09:45:15.180 1.500E-01 0.600 F -0.206 0.595 +06° 53' 13.20" 1.000E-01 0.600 F -0.049 0.749 21.1 V 0.70 2.44 b 691 1.61 Yes No
2000FP10 O C t 2000-04-02.12530 1.000E-05 09:45:14.630 1.500E-01 0.600 F -0.206 0.568 +06° 52' 35.70" 1.000E-01 0.600 F -0.049 0.510 21.2 V 0.70 2.54 b 691 1.28 Yes No
2000FP10 O C t 2000-04-02.12920 1.000E-05 09:45:14.120 1.500E-01 0.600 F -0.206 1.166 +06° 51' 57.50" 1.000E-01 0.600 F -0.049 -0.334 21.1 V 0.70 2.44 b 691 2.07 Yes No
2000GB2 O C 2000-04-02.16277 1.000E-05 12:47:10.390 1.500E-01 0.600 F 0.220 0.335 -03° 47' 02.80" 1.000E-01 0.600 F 0.029 -0.764 21.3 V 0.70 0.75 b 691 1.46 Yes Yes
2000GB2 O C 2000-04-02.16668 1.000E-05 12:47:10.060 1.500E-01 0.600 F 0.220 -0.125 -03° 46' 59.40" 1.000E-01 0.600 F 0.029 -0.299 21.1 V 0.70 0.55 b 691 0.56 Yes Yes
2000GB2 O C 2000-04-02.17055 1.000E-05 12:47:09.780 1.500E-01 0.600 F 0.220 0.122 -03° 46' 56.90" 1.000E-01 0.600 F 0.029 -0.703 21.2 V 0.70 0.65 b 691 1.25 Yes Yes
2000FJ10 O C H 2000-04-02.17618 1.000E-05 12:52:21.540 1.500E-01 0.600 F 0.182 -0.115 -04° 41' 10.10" 1.000E-01 0.600 F -0.176 0.420 20.7 V 0.70 0.54 b 691 0.73 Yes Yes
2000FJ10 O C H 2000-04-02.18002 1.000E-05 12:52:21.100 1.500E-01 0.600 F 0.182 -0.645 -04° 41' 05.80" 1.000E-01 0.600 F -0.176 0.176 21.4 V 0.70 1.24 b 691 1.13 Yes Yes
2000FJ10 O C H 2000-04-02.18391 1.000E-05 12:52:20.880 1.500E-01 0.600 F 0.182 2.199 -04° 41' 02.50" 1.000E-01 0.600 F -0.176 -1.127 20.8 V 0.70 0.64 b 691 4.08 No Yes
2000FM10 O C H 2000-04-02.18857 1.000E-05 12:53:04.220 1.500E-01 0.600 F 0.335 0.174 -04° 09' 52.20" 1.000E-01 0.600 F -0.186 0.196 20.5 V 0.70 0.16 b 691 0.44 Yes Yes
2000FM10 O C H 2000-04-02.19254 1.000E-05 12:53:03.760 1.500E-01 0.600 F 0.335 -0.540 -04° 09' 49.30" 1.000E-01 0.600 F -0.186 1.141 20.2 V 0.70 -0.14 b 691 2.11 Yes Yes
2000FM10 O C H 2000-04-02.19633 1.000E-05 12:53:03.410 1.500E-01 0.600 F 0.335 0.114 -04° 09' 48.50" 1.000E-01 0.600 F -0.186 0.075 20.3 V 0.70 -0.04 b 691 0.23 Yes Yes
2000GB2 O C H 2000-04-03.35728 1.000E-05 12:45:41.430 1.500E-01 0.600 F 0.220 -0.149 -03° 32' 10.80" 1.000E-01 0.600 F 0.029 0.440 20.7 V 0.70 0.07 b 691 0.80 Yes Yes
2000GB2 O C H 2000-04-03.36120 1.000E-05 12:45:41.130 1.500E-01 0.600 F 0.220 -0.168 -03° 32' 07.10" 1.000E-01 0.600 F 0.029 1.242 20.2 V 0.70 -0.43 b 691 2.16 Yes Yes
2000FJ10 O C 2000-04-03.37206 1.000E-05 12:50:20.160 1.500E-01 0.600 F 0.335 -0.630 -04° 17' 36.60" 1.000E-01 0.600 F -0.186 0.061 21.0 V 0.70 0.84 b 691 1.06 Yes Yes
2000FM10 O C 2000-04-03.37255 1.000E-05 12:51:02.430 1.500E-01 0.600 F 0.335 0.049 -04° 00' 06.00" 1.000E-01 0.600 F -0.186 -0.135 20.8 V 0.70 0.48 b 691 0.24 Yes Yes
2000FJ10 O C 2000-04-03.37799 1.000E-05 12:50:19.520 1.500E-01 0.600 F 0.335 -0.809 -04° 17' 29.80" 1.000E-01 0.600 F -0.186 -0.124 20.9 V 0.70 0.74 b 691 1.38 Yes Yes
2000FM10 O C 2000-04-03.37847 1.000E-05 12:51:01.810 1.500E-01 0.600 F 0.335 0.060 -04° 00' 03.10" 1.000E-01 0.600 F -0.186 -0.181 21.1 V 0.70 0.78 b 691 0.32 Yes Yes
2000FJ10 O C 2000-04-03.38346 1.000E-05 12:50:18.960 1.500E-01 0.600 F 0.335 -0.529 -04° 17' 23.30" 1.000E-01 0.600 F -0.186 -0.069 20.6 V 0.70 0.44 b 691 0.90 Yes Yes
2000FM10 O C 2000-04-03.38395 1.000E-05 12:51:01.230 1.500E-01 0.600 F 0.335 -0.024 -04° 00' 00.20" 1.000E-01 0.600 F -0.186 -0.008 20.9 V 0.70 0.58 b 691 0.04 Yes Yes
1998HL49 O C t 2000-04-04.12393 1.000E-05 04:49:57.610 1.500E-01 0.600 F -0.107 1.251 +10° 47' 18.20" 1.000E-01 0.600 F -0.016 1.791 b 691 3.63 No No
1998HL49 O C t 2000-04-04.13138 1.000E-05 04:50:01.110 1.500E-01 0.600 F -0.107 1.651 +10° 47' 25.70" 1.000E-01 0.600 F -0.016 2.809 b 691 5.42 No No
1998HL49 O C t 2000-04-04.13926 1.000E-05 04:50:04.830 1.500E-01 0.600 F -0.107 2.312 +10° 47' 32.60" 1.000E-01 0.600 F -0.016 2.857 b 691 6.11 No No
2000GB2 O C 2000-04-04.22076 1.000E-05 12:44:39.000 1.500E-01 0.600 F -0.048 -0.178 -03° 21' 37.80" 1.000E-01 0.600 F -0.059 0.578 20.5 V 0.70 -0.20 b 691 1.04 Yes Yes
2000GB2 O C 2000-04-04.22520 1.000E-05 12:44:38.690 1.500E-01 0.600 F -0.048 0.157 -03° 21' 35.30" 1.000E-01 0.600 F -0.059 -0.145 20.8 V 0.70 0.10 b 691 0.37 Yes Yes
2000GB2 O C 2000-04-04.22907 1.000E-05 12:44:38.370 1.500E-01 0.600 F -0.048 -0.295 -03° 21' 32.60" 1.000E-01 0.600 F -0.059 -0.255 20.7 V 0.70 0.00 b 691 0.67 Yes Yes
2000GT127 O C 2000-04-06.26010 1.000E-05 12:50:46.300 1.500E-01 0.600 F 0.335 -0.191 -04° 05' 15.20" 1.000E-01 0.600 F -0.186 0.110 21.1 V 0.70 0.35 b 691 0.39 Yes Yes
2000GT127 O C 2000-04-06.28109 1.000E-05 12:50:44.470 1.500E-01 0.600 F 0.335 -0.641 -04° 06' 07.80" 1.000E-01 0.600 F -0.186 -0.329 20.2 V 0.70 -0.55 b 691 1.24 Yes Yes
2000GT127 O C 2000-04-06.30223 1.000E-05 12:50:42.700 1.500E-01 0.600 F 0.335 0.064 -04° 06' 59.60" 1.000E-01 0.600 F -0.186 0.398 21.6 V 0.70 0.85 b 691 0.69 Yes Yes
2000GB2 O C 2000-04-06.32670 1.000E-05 12:42:09.650 1.500E-01 0.600 F -0.202 -0.197 -02° 56' 37.90" 1.000E-01 0.600 F -0.228 -0.752 21.1 V 0.70 0.26 b 691 1.34 Yes Yes
2000GB2 O C 2000-04-06.33061 1.000E-05 12:42:09.360 1.500E-01 0.600 F -0.202 -0.311 -02° 56' 34.70" 1.000E-01 0.600 F -0.228 -0.284 21.0 V 0.70 0.16 b 691 0.72 Yes Yes
2000GB2 O C 2000-04-06.33446 1.000E-05 12:42:09.080 1.500E-01 0.600 F -0.202 -0.341 -02° 56' 32.20" 1.000E-01 0.600 F -0.228 -0.473 20.3 V 0.70 -0.54 b 691 1.00 Yes Yes
2000FM10 O C 2000-04-07.26201 1.000E-05 12:44:21.280 1.500E-01 0.600 F -0.317 -0.064 -03° 27' 48.10" 1.000E-01 0.600 F -0.153 -0.179 21.5 V 0.70 1.03 b 691 0.32 Yes Yes
2000FM10 O C 2000-04-07.26630 1.000E-05 12:44:20.860 1.500E-01 0.600 F -0.317 0.426 -03° 27' 45.90" 1.000E-01 0.600 F -0.153 -0.115 21.2 V 0.70 0.73 b 691 0.74 Yes Yes
2000FM10 O C 2000-04-07.27046 1.000E-05 12:44:20.430 1.500E-01 0.600 F -0.317 0.561 -03° 27' 43.70" 1.000E-01 0.600 F -0.153 0.014 21.3 V 0.70 0.83 b 691 0.94 Yes Yes
2000FP10 O C 2000-04-08.19509 1.000E-05 09:36:02.570 1.500E-01 0.600 F 0.195 -0.048 -07° 20' 22.40" 1.000E-01 0.600 F -0.240 -1.754 20.3 V 0.70 1.19 b 691 3.00 Yes Yes
2000FP10 O C 2000-04-08.20149 1.000E-05 09:36:02.070 1.500E-01 0.600 F 0.195 0.222 -07° 21' 06.70" 1.000E-01 0.600 F -0.240 0.212 19.5 V 0.70 0.39 b 691 0.52 Yes Yes
2000FP10 O C 2000-04-08.20791 1.000E-05 09:36:01.570 1.500E-01 0.600 F 0.195 0.494 -07° 21' 52.00" 1.000E-01 0.600 F -0.240 1.298 19.6 V 0.70 0.49 b 691 2.36 Yes Yes
2000GB2 O C H 2000-04-08.31891 1.000E-05 12:39:54.650 1.500E-01 0.600 F -0.280 -0.262 -02° 33' 55.50" 1.000E-01 0.600 F -0.172 0.365 20.4 V 0.70 -0.57 b 691 0.79 Yes Yes
2000FJ10 O C 2000-04-08.32062 1.000E-05 12:42:24.280 1.500E-01 0.600 F -0.202 0.041 -02° 44' 03.40" 1.000E-01 0.600 F -0.228 -0.850 22.2 V 0.70 1.64 b 691 1.42 Yes Yes
2000GB2 O C H 2000-04-08.32537 1.000E-05 12:39:54.250 1.500E-01 0.600 F -0.280 0.435 -02° 33' 51.40" 1.000E-01 0.600 F -0.172 0.147 20.9 V 0.70 -0.07 b 691 0.80 Yes Yes
2000FJ10 O C 2000-04-08.32709 1.000E-05 12:42:23.650 1.500E-01 0.600 F -0.202 0.108 -02° 43' 55.80" 1.000E-01 0.600 F -0.228 -0.285 21.2 V 0.70 0.64 b 691 0.51 Yes Yes
2000GB2 O C H 2000-04-08.33160 1.000E-05 12:39:53.840 1.500E-01 0.600 F -0.280 0.740 -02° 33' 47.00" 1.000E-01 0.600 F -0.172 0.383 20.9 V 0.70 -0.07 b 691 1.45 Yes Yes
2000FJ10 O C 2000-04-08.33331 1.000E-05 12:42:23.060 1.500E-01 0.600 F -0.202 0.401 -02° 43' 49.50" 1.000E-01 0.600 F -0.228 -0.749 21.5 V 0.70 0.94 b 691 1.42 Yes Yes
2000GT127 O C 2000-04-08.34144 1.000E-05 12:48:04.220 1.500E-01 0.600 F 0.085 -0.065 -05° 33' 02.40" 1.000E-01 0.600 F -0.249 -0.820 21.4 V 0.70 0.61 b 691 1.41 Yes Yes
2000GT127 O C 2000-04-08.34862 1.000E-05 12:48:03.650 1.500E-01 0.600 F 0.085 0.810 -05° 33' 20.20" 1.000E-01 0.600 F -0.249 -0.151 20.7 V 0.70 -0.09 b 691 1.43 Yes Yes
2000GT127 O C 2000-04-08.35467 1.000E-05 12:48:03.050 1.500E-01 0.600 F 0.085 -0.251 -05° 33' 35.90" 1.000E-01 0.600 F -0.249 -0.291 21.3 V 0.70 0.51 b 691 0.66 Yes Yes
2000GX127 O C 2000-04-10.40701 1.000E-05 15:39:03.240 1.500E-01 0.600 F 0.064 -0.207 -08° 43' 03.70" 1.000E-01 0.600 F 0.134 -0.122 19.6 V 0.70 0.87 b 691 0.40 Yes Yes
2000GX127 O C 2000-04-10.42797 1.000E-05 15:39:00.390 1.500E-01 0.600 F 0.064 0.000 -08° 43' 15.90" 1.000E-01 0.600 F 0.134 -0.165 18.9 V 0.70 0.17 b 691 0.28 Yes Yes
2000GX127 O C 2000-04-10.44897 1.000E-05 15:38:57.520 1.500E-01 0.600 F 0.064 -0.001 -08° 43' 28.20" 1.000E-01 0.600 F 0.134 -0.315 19.2 V 0.70 0.47 b 691 0.53 Yes Yes
2000GT127 O C 2000-04-11.35294 1.000E-05 12:44:06.090 1.500E-01 0.600 F 0.449 0.500 -07° 45' 19.50" 1.000E-01 0.600 F -0.135 0.075 22.1 V 0.70 1.23 b 691 0.87 Yes Yes
2000GT127 O C 2000-04-11.35679 1.000E-05 12:44:05.690 1.500E-01 0.600 F 0.449 -0.386 -07° 45' 30.50" 1.000E-01 0.600 F -0.135 -0.596 21.3 V 0.70 0.43 b 691 1.22 Yes Yes
2000GT127 O C 2000-04-11.36054 1.000E-05 12:44:05.380 1.500E-01 0.600 F 0.449 -0.072 -07° 45' 40.30" 1.000E-01 0.600 F -0.135 -0.336 21.5 V 0.70 0.63 b 691 0.60 Yes Yes
2000GX127 O C 2000-04-11.43314 1.000E-05 15:36:45.840 1.500E-01 0.600 F 0.170 -0.254 -08° 53' 03.70" 1.000E-01 0.600 F 0.035 -0.322 18.9 V 0.70 0.21 b 691 0.68 Yes Yes
2000GX127 O C 2000-04-11.43691 1.000E-05 15:36:45.320 1.500E-01 0.600 F 0.170 -0.046 -08° 53' 05.80" 1.000E-01 0.600 F 0.035 -0.213 18.9 V 0.70 0.21 b 691 0.36 Yes Yes
2000GX127 O C 2000-04-11.44072 1.000E-05 15:36:44.770 1.500E-01 0.600 F 0.170 -0.199 -08° 53' 08.10" 1.000E-01 0.600 F 0.035 -0.281 18.8 V 0.70 0.11 b 691 0.57 Yes Yes
2000FM10 O C H 2000-04-12.17894 1.000E-05 12:35:56.740 1.500E-01 0.600 F 0.139 -0.174 -02° 47' 21.20" 1.000E-01 0.600 F -0.427 0.278 20.8 V 0.70 0.18 b 691 0.55 Yes Yes
2000FM10 O C H 2000-04-12.18274 1.000E-05 12:35:56.320 1.500E-01 0.600 F 0.139 -0.579 -02° 47' 19.40" 1.000E-01 0.600 F -0.427 0.234 20.6 V 0.70 -0.02 b 691 1.04 Yes Yes
2000FM10 O C H 2000-04-12.18660 1.000E-05 12:35:55.870 1.500E-01 0.600 F 0.139 -1.339 -02° 47' 17.70" 1.000E-01 0.600 F -0.427 0.060 20.9 V 0.70 0.28 b 691 2.24 Yes Yes
2000GB2 O C H 2000-04-12.19116 1.000E-05 12:35:51.170 1.500E-01 0.600 F 0.425 -0.211 -01° 52' 50.10" 1.000E-01 0.600 F -0.660 0.049 21.0 V 0.70 -0.19 b 691 0.41 Yes Yes
2000GB2 O C H 2000-04-12.19867 1.000E-05 12:35:50.730 1.500E-01 0.600 F 0.425 0.184 -01° 52' 45.80" 1.000E-01 0.600 F -0.660 -0.187 20.9 V 0.70 -0.29 b 691 0.50 Yes Yes
1997EH29 O C 2000-04-12.36729 1.000E-05 14:08:33.870 1.500E-01 0.600 F 0.150 0.232 +01° 45' 27.20" 1.000E-01 0.600 F -0.567 0.276 21.0 V 0.70 0.20 b 691 0.60 Yes Yes
1997EH29 O C 2000-04-12.37799 1.000E-05 14:08:32.550 1.500E-01 0.600 F 0.150 0.321 +01° 45' 39.20" 1.000E-01 0.600 F -0.567 -0.438 21.3 V 0.70 0.50 b 691 0.91 Yes Yes
1997EH29 O C 2000-04-12.38932 1.000E-05 14:08:31.150 1.500E-01 0.600 F 0.150 0.375 +01° 45' 53.30" 1.000E-01 0.600 F -0.567 0.200 21.7 V 0.70 0.90 b 691 0.71 Yes Yes
2000GX127 O C H 2000-04-12.42440 1.000E-05 15:34:28.420 1.500E-01 0.600 F 0.442 0.327 -09° 02' 49.80" 1.000E-01 0.600 F -0.007 0.408 19.1 V 0.70 0.45 b 691 0.87 Yes Yes
2000GX127 O C H 2000-04-12.42842 1.000E-05 15:34:27.840 1.500E-01 0.600 F 0.442 0.463 -09° 02' 52.70" 1.000E-01 0.600 F -0.007 -0.107 18.9 V 0.70 0.25 b 691 0.80 Yes Yes
2000GT127 O C H 2000-04-13.32066 1.000E-05 12:41:30.210 1.500E-01 0.600 F 0.923 -0.152 -09° 14' 34.90" 1.000E-01 0.600 F 0.044 1.103 21.4 V 0.70 0.48 b 691 2.02 Yes Yes
2000GT127 O C H 2000-04-13.32451 1.000E-05 12:41:29.900 1.500E-01 0.600 F 0.923 0.320 -09° 14' 45.50" 1.000E-01 0.600 F 0.044 1.068 20.9 V 0.70 -0.02 b 691 1.99 Yes Yes
2000GX127 O C 2000-04-13.45622 1.000E-05 15:32:00.010 1.500E-01 0.600 F 0.016 0.112 -09° 13' 08.30" 1.000E-01 0.600 F 0.098 -0.156 18.8 V 0.70 0.20 b 691 0.32 Yes Yes
2000GX127 O C 2000-04-13.46004 1.000E-05 15:31:59.430 1.500E-01 0.600 F 0.016 0.076 -09° 13' 10.70" 1.000E-01 0.600 F 0.098 -0.273 18.8 V 0.70 0.20 b 691 0.47 Yes Yes
2000GX127 O C 2000-04-13.46388 1.000E-05 15:31:58.850 1.500E-01 0.600 F 0.016 0.083 -09° 13' 12.90" 1.000E-01 0.600 F 0.098 -0.180 18.8 V 0.70 0.20 b 691 0.33 Yes Yes
2000EH26 O C t 2000-04-27.14492 1.000E-05 07:06:48.800 1.500E-01 0.600 F 0.066 1.663 +22° 20' 23.90" 1.000E-01 0.600 F 0.094 1.637 21.3 V 0.70 1.96 b 691 3.34 No No
2000EH26 O C t 2000-04-27.15135 1.000E-05 07:06:44.160 1.500E-01 0.600 F 0.066 3.707 +22° 20' 32.80" 1.000E-01 0.600 F 0.094 1.781 21.3 V 0.70 1.95 b 691 6.33 No No
Albert O C 2000-05-01.19935 1.000E-05 11:38:04.810 1.500E-01 0.735 F 0.188 -0.348 +02° 35' 21.70" 1.000E-01 0.735 F -0.101 -0.340 21.6 V 0.70 0.30 b 691 0.66 Yes Yes
Albert O C 2000-05-01.20480 1.000E-05 11:38:04.660 1.500E-01 0.735 F 0.188 -0.448 +02° 35' 23.50" 1.000E-01 0.735 F -0.101 0.047 21.8 V 0.70 0.50 b 691 0.61 Yes Yes
Albert O C 2000-05-01.21052 1.000E-05 11:38:04.530 1.500E-01 0.735 F 0.188 -0.142 +02° 35' 24.60" 1.000E-01 0.735 F -0.101 -0.336 21.6 V 0.70 0.30 b 691 0.50 Yes Yes
Albert O C H 2000-05-01.28906 1.000E-05 11:38:02.470 1.500E-01 0.735 F 0.188 -0.219 +02° 35' 46.10" 1.000E-01 0.735 F -0.101 0.840 21.2 V 0.70 -0.10 b 691 1.18 Yes Yes
Albert O C H 2000-05-01.29447 1.000E-05 11:38:02.350 1.500E-01 0.735 F 0.188 0.089 +02° 35' 48.10" 1.000E-01 0.735 F -0.101 1.443 20.8 V 0.70 -0.50 b 691 1.97 Yes Yes
Albert O C H 2000-05-01.30006 1.000E-05 11:38:02.260 1.500E-01 0.735 F 0.188 0.914 +02° 35' 48.40" 1.000E-01 0.735 F -0.101 0.299 21.2 V 0.70 -0.10 b 691 1.31 Yes Yes
2000BO28 O C H 2000-05-02.13921 1.000E-05 06:31:21.820 1.500E-01 0.600 F -0.034 0.634 +11° 29' 14.10" 1.000E-01 0.600 F -0.247 -0.377 21.3 V 0.70 0.11 b 691 1.32 Yes Yes
2000BO28 O C H 2000-05-02.14361 1.000E-05 06:31:21.150 1.500E-01 0.600 F -0.034 -0.599 +11° 29' 12.60" 1.000E-01 0.600 F -0.247 0.523 20.7 V 0.70 -0.49 b 691 1.40 Yes Yes
2000BO28 O C H 2000-05-02.14819 1.000E-05 06:31:20.620 1.500E-01 0.600 F -0.034 0.568 +11° 29' 09.70" 1.000E-01 0.600 F -0.247 0.122 20.8 V 0.70 -0.39 b 691 1.08 Yes Yes
Albert O C H 2000-05-02.17479 1.000E-05 11:37:40.780 1.500E-01 0.600 F 0.188 0.209 +02° 39' 31.50" 1.000E-01 0.600 F -0.101 -0.027 21.1 V 0.70 -0.21 b 691 0.35 Yes Yes
Albert O C H 2000-05-02.18447 1.000E-05 11:37:40.510 1.500E-01 0.600 F 0.188 -0.172 +02° 39' 34.30" 1.000E-01 0.600 F -0.101 0.333 21.2 V 0.70 -0.11 b 691 0.63 Yes Yes
Albert O C H 2000-05-02.19027 1.000E-05 11:37:40.460 1.500E-01 0.600 F 0.188 1.274 +02° 39' 35.80" 1.000E-01 0.600 F -0.101 0.372 22.3 V 0.70 0.99 b 691 2.21 Yes Yes
1997EH29 O C H 2000-05-03.23906 1.000E-05 13:23:33.670 1.500E-01 0.600 F 0.268 -0.630 +08° 03' 54.10" 1.000E-01 0.600 F -0.046 1.911 21.0 V 0.70 0.04 b 691 3.34 No Yes
1997EH29 O C H 2000-05-03.24473 1.000E-05 13:23:32.950 1.500E-01 0.600 F 0.268 -0.424 +08° 03' 58.10" 1.000E-01 0.600 F -0.046 0.891 21.7 V 0.70 0.74 b 691 1.65 Yes Yes
2000FM10 O C 2000-05-03.25361 1.000E-05 12:04:51.370 1.500E-01 0.600 F -0.343 -0.393 -00° 24' 27.90" 1.000E-01 0.600 F -0.388 0.066 21.7 V 0.70 0.59 b 691 0.66 Yes Yes
2000FM10 O C 2000-05-03.25766 1.000E-05 12:04:51.140 1.500E-01 0.600 F -0.343 0.541 -00° 24' 27.00" 1.000E-01 0.600 F -0.388 -0.239 21.6 V 0.70 0.49 b 691 0.99 Yes Yes
2000FM10 O C 2000-05-03.26279 1.000E-05 12:04:50.730 1.500E-01 0.600 F -0.343 -0.058 -00° 24' 25.50" 1.000E-01 0.600 F -0.388 -0.264 22.1 V 0.70 0.99 b 691 0.45 Yes Yes
1993GD O C 2000-05-03.27092 1.000E-05 14:13:04.290 1.500E-01 0.735 F 0.327 -0.073 +05° 34' 49.60" 1.000E-01 0.735 F -0.147 -0.183 20.6 V 0.70 0.54 b 691 0.27 Yes Yes
1993GD O C 2000-05-03.27603 1.000E-05 14:13:03.630 1.500E-01 0.735 F 0.327 -0.353 +05° 35' 01.10" 1.000E-01 0.735 F -0.147 0.180 20.5 V 0.70 0.44 b 691 0.55 Yes Yes
1993GD O C 2000-05-03.28024 1.000E-05 14:13:03.130 1.500E-01 0.735 F 0.327 0.070 +05° 35' 10.10" 1.000E-01 0.735 F -0.147 0.008 20.5 V 0.70 0.44 b 691 0.10 Yes Yes
1993GD O C 2000-05-03.29086 1.000E-05 14:13:01.810 1.500E-01 0.735 F 0.327 0.260 +05° 35' 33.20" 1.000E-01 0.735 F -0.147 -0.019 20.4 V 0.70 0.33 b 691 0.36 Yes Yes
1993GD O C 2000-05-03.29814 1.000E-05 14:13:00.920 1.500E-01 0.735 F 0.327 0.609 +05° 35' 48.70" 1.000E-01 0.735 F -0.147 -0.363 20.3 V 0.70 0.23 b 691 0.98 Yes Yes
1993GD O C 2000-05-03.30618 1.000E-05 14:12:59.850 1.500E-01 0.735 F 0.327 -0.312 +05° 36' 06.80" 1.000E-01 0.735 F -0.147 0.248 20.6 V 0.70 0.53 b 691 0.55 Yes Yes
2000GX127 O C 2000-05-03.31898 1.000E-05 14:32:25.030 1.500E-01 0.600 F 0.549 -0.066 -12° 40' 07.30" 1.000E-01 0.600 F -0.372 -0.026 18.0 V 0.70 0.19 b 691 0.12 Yes Yes
2000GX127 O C 2000-05-03.32331 1.000E-05 14:32:24.150 1.500E-01 0.600 F 0.549 -0.182 -12° 40' 10.00" 1.000E-01 0.600 F -0.372 -0.140 18.1 V 0.70 0.29 b 691 0.38 Yes Yes
2000GX127 O C 2000-05-03.32854 1.000E-05 14:32:23.100 1.500E-01 0.600 F 0.549 -0.136 -12° 40' 13.10" 1.000E-01 0.600 F -0.372 -0.120 18.1 V 0.70 0.29 b 691 0.30 Yes Yes
2000FO10 O C 2000-05-05.13992 1.000E-05 11:30:25.190 1.500E-01 0.600 F 0.395 -0.238 +03° 14' 37.60" 1.000E-01 0.600 F -0.140 -0.011 17.8 V 0.70 -0.30 b 691 0.40 Yes Yes
2000FO10 O C 2000-05-05.16288 1.000E-05 11:30:23.120 1.500E-01 0.600 F 0.395 -0.213 +03° 15' 15.10" 1.000E-01 0.600 F -0.140 0.044 17.8 V 0.70 -0.30 b 691 0.36 Yes Yes
2000FO10 O C 2000-05-05.18399 1.000E-05 11:30:21.220 1.500E-01 0.600 F 0.165 0.057 +03° 15' 49.40" 1.000E-01 0.600 F 0.038 -0.216 17.8 V 0.70 -0.30 b 691 0.37 Yes Yes
Albert O C 2000-05-06.20445 1.000E-05 11:36:12.180 1.500E-01 0.600 F 0.188 0.613 +02° 55' 25.20" 1.000E-01 0.600 F -0.100 0.246 22.3 V 0.70 0.94 b 691 1.10 Yes Yes
Albert O C 2000-05-06.22608 1.000E-05 11:36:11.770 1.500E-01 0.600 F 0.188 1.208 +02° 55' 29.60" 1.000E-01 0.600 F -0.100 -0.127 22.5 V 0.70 1.14 b 691 2.03 Yes Yes
Albert O C 2000-05-06.24140 1.000E-05 11:36:11.420 1.500E-01 0.600 F 0.188 0.723 +02° 55' 33.10" 1.000E-01 0.600 F -0.100 -0.003 21.7 V 0.70 0.34 b 691 1.20 Yes Yes
1993GD O C 2000-05-06.30206 1.000E-05 14:07:19.640 1.500E-01 0.600 F 0.326 0.195 +07° 19' 41.60" 1.000E-01 0.600 F -0.017 -0.142 20.7 V 0.70 0.49 b 691 0.41 Yes Yes
1993GD O C 2000-05-06.30643 1.000E-05 14:07:19.100 1.500E-01 0.600 F 0.326 -0.181 +07° 19' 49.60" 1.000E-01 0.600 F -0.017 -0.739 20.6 V 0.70 0.39 b 691 1.28 Yes Yes
1993GD O C 2000-05-06.31066 1.000E-05 14:07:18.610 1.500E-01 0.600 F 0.326 -0.062 +07° 19' 58.70" 1.000E-01 0.600 F -0.017 0.043 20.5 V 0.70 0.29 b 691 0.13 Yes Yes
2000HZ23 O C 2000-05-07.41658 1.000E-05 15:37:31.050 1.500E-01 0.600 F -0.014 -0.017 +00° 21' 30.00" 1.000E-01 0.600 F -0.449 -0.070 18.8 V 0.70 0.38 b 691 0.12 Yes Yes
2000HZ23 O C 2000-05-07.43772 1.000E-05 15:37:29.050 1.500E-01 0.600 F -0.014 -0.023 +00° 20' 45.30" 1.000E-01 0.600 F -0.449 -0.097 19.0 V 0.70 0.58 b 691 0.17 Yes Yes
2000HZ23 O C 2000-05-07.45884 1.000E-05 15:37:27.080 1.500E-01 0.600 F -0.014 0.138 +00° 20' 00.70" 1.000E-01 0.600 F -0.449 -0.029 18.9 V 0.70 0.48 b 691 0.24 Yes Yes
2000HZ23 O C 2000-05-09.34454 1.000E-05 15:34:41.380 1.500E-01 0.600 F 0.001 0.205 -00° 48' 51.90" 1.000E-01 0.600 F -0.717 -0.254 18.9 V 0.70 0.58 b 691 0.55 Yes Yes
2000HZ23 O C 2000-05-09.34841 1.000E-05 15:34:40.980 1.500E-01 0.600 F 0.001 0.132 -00° 49' 00.70" 1.000E-01 0.600 F -0.717 -0.281 18.9 V 0.70 0.58 b 691 0.52 Yes Yes
2000HZ23 O C I 2000-05-09.35230 1.000E-05 15:34:40.550 1.500E-01 0.600 F 0.001 -0.362 -00° 49' 10.10" 1.000E-01 0.600 F -0.717 -0.862 19.9 V 0.70 1.58 b 691 1.57 Yes Yes
2000HZ23 O C 2000-05-10.24469 1.000E-05 15:33:19.300 1.500E-01 0.600 F 0.371 -0.206 -01° 23' 25.00" 1.000E-01 0.600 F -0.825 -0.277 18.8 V 0.70 0.52 b 691 0.58 Yes Yes
2000HZ23 O C 2000-05-10.24943 1.000E-05 15:33:18.820 1.500E-01 0.600 F 0.371 -0.052 -01° 23' 36.00" 1.000E-01 0.600 F -0.825 -0.182 18.8 V 0.70 0.52 b 691 0.32 Yes Yes
2000HZ23 O C 2000-05-10.25392 1.000E-05 15:33:18.360 1.500E-01 0.600 F 0.371 0.025 -01° 23' 46.30" 1.000E-01 0.600 F -0.825 0.030 18.7 V 0.70 0.42 b 691 0.06 Yes Yes
2000GX127 O C 2000-05-28.23640 1.000E-05 13:26:48.620 1.500E-01 0.600 F -0.642 -0.517 -16° 13' 11.50" 1.000E-01 0.600 F 0.504 -0.517 19.3 V 0.70 0.22 b 691 1.22 Yes Yes
2000GX127 O C 2000-05-28.26318 1.000E-05 13:26:45.730 1.500E-01 0.600 F -0.642 -0.531 -16° 13' 23.30" 1.000E-01 0.600 F 0.504 -0.417 19.4 V 0.70 0.32 b 691 1.13 Yes Yes
2000GX127 O C 2000-05-28.29001 1.000E-05 13:26:42.840 1.500E-01 0.600 F -0.642 -0.672 -16° 13' 35.10" 1.000E-01 0.600 F 0.504 -0.378 19.5 V 0.70 0.42 b 691 1.29 Yes Yes
1997EH29 O C H 2000-05-29.15390 1.000E-05 12:42:36.250 1.500E-01 0.600 F 0.193 0.654 +11° 41' 59.90" 1.000E-01 0.600 F -0.207 0.279 21.5 V 0.70 -0.03 b 691 1.19 Yes Yes
1997EH29 O C H 2000-05-29.16243 1.000E-05 12:42:35.710 1.500E-01 0.600 F 0.193 0.299 +11° 42' 01.80" 1.000E-01 0.600 F -0.207 0.941 21.4 V 0.70 -0.13 b 691 1.65 Yes Yes
1997EH29 O C H 2000-05-29.17104 1.000E-05 12:42:35.210 1.500E-01 0.600 F 0.193 0.598 +11° 42' 02.30" 1.000E-01 0.600 F -0.207 0.198 21.3 V 0.70 -0.23 b 691 1.05 Yes Yes
2000HZ23 O C 2000-05-30.22560 1.000E-05 14:57:52.670 1.500E-01 0.600 F -0.332 0.030 -17° 41' 50.60" 1.000E-01 0.600 F -0.273 -0.526 18.7 V 0.70 0.53 b 691 0.90 Yes Yes
2000HZ23 O C 2000-05-30.24743 1.000E-05 14:57:50.120 1.500E-01 0.600 F -0.332 -0.076 -17° 43' 01.80" 1.000E-01 0.600 F -0.273 -0.757 18.7 V 0.70 0.53 b 691 1.30 Yes Yes
2000HZ23 O C 2000-05-30.26934 1.000E-05 14:57:47.570 1.500E-01 0.600 F -0.380 -0.025 -17° 44' 12.50" 1.000E-01 0.600 F -0.030 -0.643 18.6 V 0.70 0.43 b 691 1.09 Yes Yes
1998HL49 O C H 2000-05-31.16157 1.000E-05 10:35:23.430 1.500E-01 0.600 F 0.292 0.984 +07° 34' 58.50" 1.000E-01 0.600 F -0.363 -0.784 20.9 V 0.70 0.80 b 691 2.10 Yes Yes
1998HL49 O C H 2000-05-31.16711 1.000E-05 10:35:24.520 1.500E-01 0.600 F 0.292 0.949 +07° 34' 55.70" 1.000E-01 0.600 F -0.363 0.179 21.1 V 0.70 1.00 b 691 1.61 Yes Yes
2000GX127 O C 2000-06-04.22176 1.000E-05 13:16:45.530 1.500E-01 0.600 F -1.151 0.107 -17° 05' 41.30" 1.000E-01 0.600 F 0.207 -0.250 19.7 V 0.70 0.34 b 691 0.45 Yes Yes
2000GX127 O C 2000-06-04.22674 1.000E-05 13:16:45.130 1.500E-01 0.600 F -1.151 -0.335 -17° 05' 43.40" 1.000E-01 0.600 F 0.207 -0.132 19.7 V 0.70 0.34 b 691 0.60 Yes Yes
2000GX127 O C 2000-06-04.23136 1.000E-05 13:16:44.810 1.500E-01 0.600 F -1.151 -0.019 -17° 05' 45.40" 1.000E-01 0.600 F 0.207 -0.076 19.6 V 0.70 0.24 b 691 0.13 Yes Yes
2000LG6 O C t 2000-06-04.25538 1.000E-05 15:20:27.930 1.500E-01 0.735 F -0.314 -0.317 -17° 39' 23.90" 1.000E-01 0.735 F -0.396 0.525 18.0 V 0.70 0.03 b 691 0.93 Yes Yes
2000LG6 O C t 2000-06-04.27710 1.000E-05 15:18:39.220 1.500E-01 0.735 F -0.217 -0.456 -17° 51' 35.90" 1.000E-01 0.735 F -0.314 -0.575 b 691 1.12 Yes No
2000LG6 O C t 2000-06-04.30621 1.000E-05 15:16:15.420 1.500E-01 0.735 F -0.219 0.217 -18° 07' 22.50" 1.000E-01 0.735 F -0.259 0.277 b 691 0.52 Yes No
2000LG6 O C t 2000-06-04.31222 1.000E-05 15:15:46.000 1.500E-01 0.735 F -0.219 -0.685 -18° 10' 34.70" 1.000E-01 0.735 F -0.259 -0.836 b 691 1.61 Yes No
2000LG6 O C t 2000-06-04.34286 1.000E-05 15:13:18.750 1.500E-01 0.735 F -0.219 1.424 -18° 26' 23.80" 1.000E-01 0.735 F -0.259 0.856 b 691 2.59 Yes No
2000LG6 O C t 2000-06-04.34746 1.000E-05 15:12:56.870 1.500E-01 0.735 F -0.219 -0.226 -18° 28' 44.10" 1.000E-01 0.735 F -0.259 0.011 b 691 0.37 Yes No
2000LG6 O C t 2000-06-05.16825 1.000E-05 14:25:28.510 1.500E-01 0.600 F 0.164 0.873 -24° 32' 13.20" 1.000E-01 0.600 F -0.063 -0.188 18.3 V 0.70 -0.41 b 691 1.92 Yes Yes
2000LG6 O C t 2000-06-05.17459 1.000E-05 14:25:03.140 1.500E-01 0.600 F 0.164 -0.284 -24° 34' 30.30" 1.000E-01 0.600 F -0.063 -0.358 18.3 V 0.70 -0.41 b 691 0.92 Yes Yes
2000LG6 O C t 2000-06-05.18052 1.000E-05 14:24:39.290 1.500E-01 0.600 F 0.164 -3.102 -24° 36' 36.70" 1.000E-01 0.600 F -0.063 -0.204 18.3 V 0.70 -0.42 b 691 4.44 No Yes
2000LG6 O C t 2000-06-05.26086 1.000E-05 14:19:23.490 1.500E-01 0.600 F -0.199 -0.561 -25° 02' 45.30" 1.000E-01 0.600 F -0.076 0.279 18.6 V 0.70 -0.19 b 691 1.27 Yes Yes
2000GR146 O C 2000-06-05.28144 1.000E-05 15:49:14.290 1.500E-01 0.600 F -0.222 -0.120 -13° 23' 14.30" 1.000E-01 0.600 F 0.383 -0.337 17.2 V 0.70 0.20 b 691 0.60 Yes Yes
2000GR146 O C 2000-06-05.30288 1.000E-05 15:49:11.590 1.500E-01 0.600 F -0.222 -0.115 -13° 23' 26.20" 1.000E-01 0.600 F 0.383 -0.290 17.3 V 0.70 0.30 b 691 0.52 Yes Yes
2000GR146 O C 2000-06-05.32407 1.000E-05 15:49:08.930 1.500E-01 0.600 F -0.222 -0.061 -13° 23' 38.00" 1.000E-01 0.600 F 0.383 -0.329 17.2 V 0.70 0.20 b 691 0.56 Yes Yes
2000LG6 O C t 2000-06-06.17113 1.000E-05 13:39:05.940 1.500E-01 0.600 F -0.125 -5.176 -28° 51' 25.40" 1.000E-01 0.600 F 0.313 -0.739 19.8 V 0.70 0.37 b 691 7.08 No Yes
2000LK10 O C 2000-06-06.19038 1.000E-05 14:30:34.500 1.500E-01 0.600 F -0.250 -0.031 -15° 04' 31.60" 1.000E-01 0.600 F -0.366 0.005 21.1 V 0.70 0.50 b 691 0.05 Yes Yes
2000LK10 O C 2000-06-06.21276 1.000E-05 14:30:33.110 1.500E-01 0.600 F -0.250 -0.550 -15° 04' 35.70" 1.000E-01 0.600 F -0.366 -0.394 20.3 V 0.70 -0.30 b 691 1.14 Yes Yes
2000LK10 O C 2000-06-06.23567 1.000E-05 14:30:31.720 1.500E-01 0.600 F -0.250 -0.634 -15° 04' 38.60" 1.000E-01 0.600 F -0.366 0.435 21.0 V 0.70 0.40 b 691 1.32 Yes Yes
2000LG6 O C t 2000-06-06.25764 1.000E-05 13:34:52.750 1.500E-01 0.600 F -0.134 2.099 -29° 05' 30.70" 1.000E-01 0.600 F 0.530 0.501 b 691 3.17 No No
2000LG6 O C t 2000-06-07.22138 1.000E-05 13:03:45.770 1.500E-01 0.600 F 0.104 -5.663 -31° 17' 20.70" 1.000E-01 0.600 F -0.080 -1.513 21.1 V 0.70 1.02 b 691 7.99 No Yes
2000LG6 O C t 2000-06-07.22694 1.000E-05 13:03:34.130 1.500E-01 0.600 F 0.104 -0.630 -31° 17' 43.90" 1.000E-01 0.600 F -0.080 -0.960 b 691 2.62 Yes No
2000LG6 O C t 2000-06-07.23253 1.000E-05 13:03:22.210 1.500E-01 0.600 F 0.104 0.635 -31° 18' 05.00" 1.000E-01 0.600 F -0.080 1.067 b 691 2.82 Yes No
2000LK10 O C H 2000-06-07.24457 1.000E-05 14:29:37.500 1.500E-01 0.600 F -0.250 0.186 -15° 07' 31.40" 1.000E-01 0.600 F -0.366 0.471 21.0 V 0.70 0.38 b 691 0.85 Yes Yes
2000LK10 O C H 2000-06-07.25121 1.000E-05 14:29:37.110 1.500E-01 0.600 F -0.250 0.067 -15° 07' 32.90" 1.000E-01 0.600 F -0.366 0.113 21.0 V 0.70 0.38 b 691 0.22 Yes Yes
2000LK10 O C H 2000-06-07.25786 1.000E-05 14:29:36.720 1.500E-01 0.600 F -0.250 -0.051 -15° 07' 33.70" 1.000E-01 0.600 F -0.365 0.452 21.7 V 0.70 1.08 b 691 0.77 Yes Yes
2000LK10 O C H 2000-06-09.24042 1.000E-05 14:27:58.500 1.500E-01 0.600 F -0.559 0.555 -15° 13' 52.00" 1.000E-01 0.600 F -0.371 -0.418 21.2 V 0.70 0.55 b 691 1.19 Yes Yes

[1-200] [201-400] [401-600] [601-800] [801-1000] [1001-1200] [1201-1400] [1401-1600] [1601-1800] [1801-2000] [2001-2200] [2201-2400] [2401-2600] [2601-2800] [2801-3000] [3001-3200] [3201-3400] [3401-3600] [3601-3800] [3801-4000] [4001-4200] [4201-4400] [4401-4600] [4601-4800] [4801-5000] [5001-5200] [5201-5400] [5401-5600] [5601-5800] [5801-6000] [6001-6200] [6201-6400] [6401-6600] [6601-6800] [6801-7000] [7001-7200] [7201-7400] [7401-7600] [7601-7800] [7801-8000] [8001-8200] [8201-8400] [8401-8600] [8601-8800] [8801-9000] [9001-9200] [9201-9400] [9401-9600] [9601-9800] [9801-10000] [10001-10200] [10201-10400] [10401-10600] [10601-10800] [10801-11000] [11001-11200] [11201-11400] [11401-11600] [11601-11800] [11801-12000] [12001-12200] [12201-12400] [12401-12600] [12601-12800] [12801-13000] [13001-13200] [13201-13400] [13401-13600] [13601-13800] [13801-14000] [14001-14200] [14201-14400] [14401-14600] [14601-14800] [14801-15000] [15001-15200] [15201-15400] [15401-15600] [15601-15800] [15801-16000] [16001-16200] [16201-16400] [16401-16600] [16601-16800] [16801-17000] [17001-17200] [17201-17400] [17401-17600] [17601-17800] [17801-18000] [18001-18200] [18201-18400] [18401-18600] [18601-18800] [18801-19000] [19001-19200] [19201-19400] [19401-19600] [19601-19800] [19801-20000] [20001-20200] [20201-20400] [20401-20600] [20601-20800] [20801-21000] [21001-21200] [21201-21400] [21401-21600] [21601-21800] [21801-22000] [22001-22200] [22201-22400] [22401-22600] [22601-22800] [22801-23000] [23001-23200] [23201-23400] [23401-23600] [23601-23800] [23801-24000] [24001-24200] [24201-24400] [24401-24600] [24601-24800] [24801-25000] [25001-25200] [25201-25400] [25401-25600] [25601-25800] [25801-26000] [26001-26200] [26201-26400] [26401-26600] [26601-26800] [26801-27000] [27001-27200] [27201-27400] [27401-27600] [27601-27800] [27801-28000] [28001-28200] [28201-28400] [28401-28600] [28601-28800] [28801-29000] [29001-29200] [29201-29400] [29401-29600] [29601-29800] [29801-30000] [30001-30200] [30201-30400] [30401-30600] [30601-30800] [30801-31000] [31001-31200] [31201-31400] [31401-31600] [31601-31800] [31801-32000] [32001-32200] [32201-32400] [32401-32600] [32601-32800] [32801-33000] [33001-33200] [33201-33400] [33401-33600] [33601-33800] [33801-34000] [34001-34200] [34201-34400] [34401-34600] [34601-34800] [34801-35000] [35001-35200] [35201-35400] [35401-35600] [35601-35800] [35801-36000] [36001-36200] [36201-36400] [36401-36600] [36601-36800] [36801-37000] [37001-37200] [37201-37400] [37401-37600] [37601-37800] [37801-38000] [38001-38200] [38201-38400] [38401-38600] [38601-38800] [38801-39000] [39001-39200] [39201-39400] [39401-39600] [39601-39800] [39801-40000] [40001-40200] [40201-40400] [40401-40600] [40601-40800] [40801-41000] [41001-41200] [41201-41400] [41401-41600] [41601-41800] [41801-42000] [42001-42200] [42201-42400] [42401-42600] [42601-42800] [42801-43000] [43001-43200] [43201-43400] [43401-43600] [43601-43800] [43801-44000] [44001-44200] [44201-44400] [44401-44600] [44601-44800] [44801-45000] [45001-45200] [45201-45400] [45401-45600] [45601-45800] [45801-46000] [46001-46200] [46201-46400] [46401-46600] [46601-46800] [46801-47000] [47001-47200] [47201-47400] [47401-47600] [47601-47800] [47801-48000] [48001-48200] [48201-48400] [48401-48600] [48601-48800] [48801-49000] [49001-49200] [49201-49400] [49401-49600] [49601-49800] [49801-50000] [50001-50200] [50201-50388]